< < Back
Terminal Aerodrome Forecast


Current Version              Previous Versions:   1  2  3  4  5  6  7  8  9  

Terminal Aerodrome Forecast

385
FTUS44 KMRX 210530
TAFTYS
TAF
KTYS 210530Z 2106/2206 23005KT P6SM SCT070
     FM211400 26008KT P6SM SCT050
     FM211700 30010KT P6SM BKN050
     FM220000 35005KT P6SM BKN035=



Latest METAR

667
SAUS80 KWBC 210500 RRB
MTRTYS
METAR KTYS 210453Z 22006KT 10SM SCT046 12/10 A3000 RMK AO2 SLP154
T01220100 401940072


USA.gov is the U.S. government's official web portal to all federal, state and local government web resources and services.